Time;durP1;ratioP1;P1;durP2;ratioP2;P2;SDS_P1;SDS_P2;PMS_P1;PMS_P2;Temp;Humidity;BMP_temperature;BMP_pressure;BME280_temperature;BME280_humidity;BME280_pressure;Samples;Min_cycle;Max_cycle;Signal;HPM_P1;HPM_P2
2023/01/08 00:01:03;;;;;;;5.45;4.10;;;10.30;99.90;;;;;;5013755;28;20046;-65
2023/01/08 00:03:29;;;;;;;5.53;4.10;;;10.40;99.90;;;;;;5014618;28;20121;-65
2023/01/08 00:05:58;;;;;;;10.65;4.07;;;10.40;99.90;;;;;;5001480;28;20132;-65
2023/01/08 00:08:24;;;;;;;6.03;4.13;;;10.40;99.90;;;;;;5013540;28;20038;-65
2023/01/08 00:10:54;;;;;;;5.55;4.20;;;10.40;99.90;;;;;;5013884;28;20076;-64
2023/01/08 00:13:20;;;;;;;5.93;4.10;;;10.40;99.90;;;;;;5005625;28;20447;-65
2023/01/08 00:15:45;;;;;;;7.00;4.63;;;10.40;99.90;;;;;;5013888;28;20030;-65
2023/01/08 00:18:11;;;;;;;6.00;4.32;;;10.40;99.90;;;;;;5013780;28;20034;-65
2023/01/08 00:20:40;;;;;;;6.22;4.10;;;10.40;99.90;;;;;;5007290;28;20046;-65
2023/01/08 00:23:12;;;;;;;5.20;3.70;;;10.40;99.90;;;;;;4995257;28;20046;-65
2023/01/08 00:25:38;;;;;;;5.78;3.80;;;10.40;99.90;;;;;;5013943;28;20277;-65
2023/01/08 00:28:04;;;;;;;7.30;3.90;;;10.40;99.90;;;;;;5012609;28;20490;-65
2023/01/08 00:30:29;;;;;;;5.30;4.07;;;10.40;99.90;;;;;;4998272;28;20034;-65
2023/01/08 00:32:55;;;;;;;5.82;4.20;;;10.40;99.90;;;;;;5010342;28;20038;-65
2023/01/08 00:35:20;;;;;;;6.53;3.97;;;10.40;99.90;;;;;;5013512;28;20037;-65
2023/01/08 00:37:48;;;;;;;7.25;4.30;;;10.40;99.90;;;;;;5010260;28;20034;-65
2023/01/08 00:40:14;;;;;;;6.47;3.97;;;10.40;99.90;;;;;;5002247;28;20038;-65
2023/01/08 00:42:39;;;;;;;6.20;4.20;;;10.50;99.90;;;;;;5013096;28;20037;-65
2023/01/08 00:45:06;;;;;;;6.18;4.30;;;10.40;99.90;;;;;;5013734;28;20038;-65
2023/01/08 00:47:31;;;;;;;6.00;4.15;;;10.40;99.90;;;;;;5005963;28;20042;-65
2023/01/08 00:49:57;;;;;;;7.03;4.10;;;10.40;99.90;;;;;;5009266;28;20042;-65
2023/01/08 00:52:23;;;;;;;6.72;4.45;;;10.40;99.90;;;;;;5012866;28;20038;-65
2023/01/08 00:54:48;;;;;;;5.63;4.20;;;10.40;99.90;;;;;;5010301;28;20044;-65
2023/01/08 00:57:14;;;;;;;4.85;3.97;;;10.40;99.90;;;;;;5011715;28;20036;-65
2023/01/08 00:59:39;;;;;;;6.93;4.57;;;10.40;99.90;;;;;;5012736;28;20061;-65
2023/01/08 01:02:05;;;;;;;6.60;4.68;;;10.40;99.90;;;;;;5008669;28;20116;-65
2023/01/08 01:04:31;;;;;;;7.57;4.72;;;10.40;99.90;;;;;;5005917;28;20037;-65
2023/01/08 01:06:56;;;;;;;6.25;4.20;;;10.40;99.90;;;;;;5012688;28;20034;-65
2023/01/08 01:09:22;;;;;;;6.53;5.00;;;10.40;99.90;;;;;;5012853;28;20500;-65
2023/01/08 01:11:47;;;;;;;7.60;4.78;;;10.30;99.90;;;;;;5004656;28;20037;-65
2023/01/08 01:14:13;;;;;;;6.65;4.80;;;10.20;99.90;;;;;;5004761;28;20488;-66
2023/01/08 01:16:40;;;;;;;8.27;4.85;;;10.20;99.90;;;;;;5012679;28;20042;-66
2023/01/08 01:19:06;;;;;;;7.22;5.28;;;10.20;99.90;;;;;;5005569;28;20559;-66
2023/01/08 01:21:32;;;;;;;8.20;4.72;;;10.20;99.90;;;;;;5008139;28;20034;-64
2023/01/08 01:24:02;;;;;;;9.70;1.98;;;10.10;99.90;;;;;;5012627;28;20114;-64
2023/01/08 01:26:28;;;;;;;4.97;1.98;;;9.80;99.90;;;;;;5012821;28;20072;-64
2023/01/08 01:28:56;;;;;;;7.30;1.88;;;9.60;99.90;;;;;;5005868;28;20048;-64
2023/01/08 01:31:23;;;;;;;6.03;1.60;;;9.50;99.90;;;;;;5008532;28;22445;-64
2023/01/08 01:33:49;;;;;;;7.80;1.80;;;9.30;99.90;;;;;;5012134;28;20149;-64
2023/01/08 01:36:17;;;;;;;6.68;1.65;;;9.10;99.90;;;;;;5009454;28;20044;-64
2023/01/08 01:38:47;;;;;;;3.83;1.45;;;9.00;99.90;;;;;;5006302;28;20045;-64
2023/01/08 01:41:28;;;;;;;5.60;1.70;;;9.00;99.90;;;;;;5010140;28;20042;-64
2023/01/08 01:43:56;;;;;;;5.78;1.65;;;8.90;99.90;;;;;;5011869;28;20311;-65
2023/01/08 01:46:37;;;;;;;4.15;1.50;;;8.90;99.90;;;;;;4999338;28;20182;-64
2023/01/08 01:49:22;;;;;;;6.10;1.63;;;8.90;99.90;;;;;;5009706;28;20160;-65
2023/01/08 01:51:52;;;;;;;7.47;1.98;;;8.90;99.90;;;;;;5012148;28;20041;-64
2023/01/08 01:54:18;;;;;;;3.95;1.77;;;8.90;99.90;;;;;;4998095;28;20050;-64
2023/01/08 01:56:45;;;;;;;6.45;2.20;;;9.00;99.90;;;;;;5005531;28;20084;-65
2023/01/08 02:01:41;;;;;;;6.25;2.00;;;9.10;99.90;;;;;;5020350;28;20041;-65
2023/01/08 02:04:10;;;;;;;11.98;2.33;;;9.10;99.90;;;;;;5413654;22;20000;-67
2023/01/08 02:06:54;;;;;;;7.15;1.90;;;9.10;99.90;;;;;;5021151;28;20377;-67
2023/01/08 02:09:41;;;;;;;7.70;1.92;;;9.10;99.90;;;;;;5008614;28;20049;-69
2023/01/08 02:12:21;;;;;;;6.03;1.75;;;9.10;99.90;;;;;;5025370;28;20046;-69
2023/01/08 02:15:23;;;;;;;7.38;1.90;;;9.00;99.90;;;;;;5031338;28;20037;-69
2023/01/08 02:17:51;;;;;;;8.27;2.08;;;9.00;99.90;;;;;;5020758;28;20113;-69
2023/01/08 02:20:30;;;;;;;5.13;2.22;;;8.90;99.90;;;;;;5011939;28;20507;-69
2023/01/08 02:23:28;;;;;;;6.07;2.00;;;8.80;99.90;;;;;;5030196;28;20056;-69
2023/01/08 02:26:09;;;;;;;7.20;2.45;;;8.80;99.90;;;;;;5011905;28;20045;-69
2023/01/08 02:28:47;;;;;;;8.25;2.58;;;8.80;99.90;;;;;;5006961;28;20052;-69
2023/01/08 02:31:14;;;;;;;8.07;2.55;;;8.80;99.90;;;;;;5030834;28;20442;-69
2023/01/08 02:33:40;;;;;;;7.53;2.30;;;8.70;99.90;;;;;;5014006;28;20052;-69
2023/01/08 02:36:35;;;;;;;7.40;2.40;;;8.70;99.90;;;;;;5002033;28;20034;-69
2023/01/08 02:39:20;;;;;;;5.60;2.40;;;8.70;99.90;;;;;;4996618;28;20674;-69
2023/01/08 02:41:52;;;;;;;6.68;2.40;;;8.70;99.90;;;;;;5031065;28;20514;-69
2023/01/08 02:52:18;;;;;;;6.03;3.80;;;8.70;99.90;;;;;;5832091;22;21120;-65
2023/01/08 02:54:46;;;;;;;11.02;4.10;;;8.70;99.90;;;;;;4979882;28;20038;-66
2023/01/08 02:57:13;;;;;;;6.30;4.25;;;8.80;99.90;;;;;;5020272;28;20065;-65
2023/01/08 02:59:42;;;;;;;7.10;4.72;;;8.90;99.90;;;;;;4989462;28;20045;-66
2023/01/08 03:02:09;;;;;;;9.55;4.75;;;8.90;99.90;;;;;;4983726;28;20046;-66
2023/01/08 03:04:51;;;;;;;7.43;4.90;;;9.00;99.90;;;;;;4991395;28;20046;-66
2023/01/08 03:07:17;;;;;;;6.93;5.25;;;9.00;99.90;;;;;;5022390;22;20041;-62
2023/01/08 03:09:43;;;;;;;11.00;5.32;;;9.00;99.90;;;;;;5019341;28;20446;-62
2023/01/08 03:12:17;;;;;;;8.43;5.13;;;9.10;99.90;;;;;;5013474;28;20109;-62
2023/01/08 03:14:51;;;;;;;9.05;5.70;;;9.10;99.90;;;;;;5011463;28;20407;-62
2023/01/08 03:17:24;;;;;;;8.57;5.20;;;9.20;99.90;;;;;;5000833;28;20038;-62
2023/01/08 03:19:55;;;;;;;9.73;5.57;;;9.20;99.90;;;;;;4991261;28;20045;-62
2023/01/08 03:22:22;;;;;;;9.35;5.13;;;9.30;99.90;;;;;;4991408;28;20038;-62
2023/01/08 03:24:51;;;;;;;8.02;5.20;;;9.30;99.90;;;;;;4996761;28;20403;-62
2023/01/08 03:27:21;;;;;;;10.38;5.65;;;9.40;99.90;;;;;;4994585;28;20500;-62
2023/01/08 03:29:50;;;;;;;10.70;5.35;;;9.40;99.90;;;;;;4997072;28;20121;-62
2023/01/08 03:32:19;;;;;;;10.20;5.25;;;9.50;99.90;;;;;;4991261;28;20042;-62
2023/01/08 03:34:47;;;;;;;9.77;5.57;;;9.50;99.90;;;;;;4994988;28;20492;-62
2023/01/08 03:37:14;;;;;;;10.20;5.35;;;9.60;99.90;;;;;;4975990;28;20046;-62
2023/01/08 03:39:48;;;;;;;7.25;4.22;;;9.60;99.90;;;;;;4995343;28;20392;-62
2023/01/08 03:42:16;;;;;;;9.68;5.15;;;9.60;99.90;;;;;;4993347;28;20580;-62
2023/01/08 03:44:41;;;;;;;6.50;4.47;;;9.60;99.90;;;;;;4994718;28;20038;-62
2023/01/08 03:47:09;;;;;;;7.60;4.30;;;9.60;99.90;;;;;;4994493;28;20042;-62
2023/01/08 03:49:36;;;;;;;8.27;4.40;;;9.50;99.90;;;;;;4996012;28;20042;-62
2023/01/08 03:52:02;;;;;;;9.27;4.70;;;9.50;99.90;;;;;;5001859;28;20404;-62
2023/01/08 03:54:35;;;;;;;9.98;5.22;;;9.50;99.90;;;;;;4998706;28;20476;-62
2023/01/08 03:57:01;;;;;;;8.52;5.03;;;9.50;99.90;;;;;;5014161;28;20037;-62
2023/01/08 03:59:26;;;;;;;7.35;4.70;;;9.50;99.90;;;;;;5000104;28;20072;-62
2023/01/08 04:01:52;;;;;;;8.10;5.10;;;9.50;99.90;;;;;;5008737;28;20080;-62
2023/01/08 04:04:18;;;;;;;6.40;3.42;;;9.50;99.90;;;;;;5014353;28;20042;-62
2023/01/08 04:06:43;;;;;;;5.60;3.22;;;9.40;99.90;;;;;;5004245;28;20484;-64
2023/01/08 04:09:09;;;;;;;7.72;3.65;;;9.30;99.90;;;;;;4998971;28;20038;-64
2023/01/08 04:11:35;;;;;;;4.00;3.08;;;9.30;99.90;;;;;;5006409;28;20242;-64
2023/01/08 04:14:00;;;;;;;6.82;3.13;;;9.20;99.90;;;;;;5009276;28;20444;-64
2023/01/08 04:16:26;;;;;;;7.25;3.47;;;9.20;99.90;;;;;;4985935;28;20042;-64
2023/01/08 04:18:51;;;;;;;5.72;3.25;;;9.20;99.90;;;;;;5013258;28;20061;-64
2023/01/08 04:21:17;;;;;;;5.55;2.83;;;9.10;99.90;;;;;;5005987;28;20033;-64
2023/01/08 04:23:43;;;;;;;6.53;2.67;;;9.00;99.90;;;;;;4996832;28;20042;-64
2023/01/08 04:26:09;;;;;;;6.28;2.85;;;9.00;99.90;;;;;;5000661;28;20034;-64
2023/01/08 04:28:35;;;;;;;4.32;2.67;;;9.00;99.90;;;;;;5002463;28;20036;-64
2023/01/08 04:31:09;;;;;;;5.97;2.88;;;9.00;99.90;;;;;;4999585;28;20125;-64
2023/01/08 04:33:35;;;;;;;5.07;2.72;;;9.00;99.90;;;;;;5006599;28;20089;-64
2023/01/08 04:36:02;;;;;;;6.63;3.42;;;8.90;99.90;;;;;;5015862;28;20041;-64
2023/01/08 04:38:28;;;;;;;4.82;2.75;;;8.90;99.90;;;;;;5006779;28;20030;-64
2023/01/08 04:40:58;;;;;;;4.40;2.72;;;8.90;99.90;;;;;;4994813;28;20085;-64
2023/01/08 04:43:24;;;;;;;6.40;3.50;;;8.90;99.90;;;;;;5011336;28;20038;-64
2023/01/08 04:45:49;;;;;;;8.55;3.50;;;8.90;99.90;;;;;;4995868;28;20044;-64
2023/01/08 04:48:15;;;;;;;7.65;4.10;;;8.90;99.90;;;;;;5009355;28;20046;-64
2023/01/08 04:50:41;;;;;;;7.53;3.63;;;9.00;99.90;;;;;;4975430;28;20046;-64
2023/01/08 04:53:06;;;;;;;6.57;3.88;;;9.00;99.90;;;;;;4992957;28;20035;-64
2023/01/08 04:55:32;;;;;;;7.10;4.10;;;8.90;99.90;;;;;;4988072;28;20095;-64
2023/01/08 04:57:58;;;;;;;8.38;4.40;;;9.00;99.90;;;;;;4991070;28;20075;-64
2023/01/08 05:00:24;;;;;;;13.02;5.20;;;9.00;99.90;;;;;;4975995;28;20031;-64
2023/01/08 05:02:49;;;;;;;8.23;4.88;;;9.00;99.90;;;;;;5012857;28;20042;-64
2023/01/08 05:05:15;;;;;;;9.32;5.28;;;9.10;99.90;;;;;;5012699;28;20042;-64
2023/01/08 05:07:41;;;;;;;9.02;4.50;;;9.10;99.90;;;;;;4993009;28;20045;-64
2023/01/08 05:10:07;;;;;;;10.43;4.68;;;9.10;99.90;;;;;;5000262;28;20031;-64
2023/01/08 05:12:32;;;;;;;10.80;4.45;;;9.00;99.90;;;;;;5008643;28;20503;-64
2023/01/08 05:14:58;;;;;;;8.88;4.75;;;9.00;99.90;;;;;;5001985;28;20069;-64
2023/01/08 05:17:24;;;;;;;8.77;4.20;;;9.00;99.90;;;;;;5001019;28;20404;-64
2023/01/08 05:19:49;;;;;;;7.50;4.40;;;9.00;99.90;;;;;;4993102;28;20042;-64
2023/01/08 05:22:15;;;;;;;7.70;4.00;;;9.00;99.90;;;;;;4992445;28;20049;-64
2023/01/08 05:24:40;;;;;;;11.40;4.03;;;9.00;99.90;;;;;;5007570;28;20046;-64
2023/01/08 05:27:06;;;;;;;7.25;3.22;;;9.00;99.90;;;;;;4995749;28;20046;-64
2023/01/08 05:29:31;;;;;;;6.18;3.42;;;8.90;99.90;;;;;;4993153;28;20372;-64
2023/01/08 05:31:57;;;;;;;6.00;2.67;;;8.90;99.90;;;;;;5000662;28;20042;-64
2023/01/08 05:34:23;;;;;;;7.30;2.95;;;8.80;99.90;;;;;;4992800;28;20042;-64
2023/01/08 05:36:48;;;;;;;7.43;2.70;;;8.80;99.90;;;;;;4975248;28;20074;-64
2023/01/08 05:39:14;;;;;;;4.15;2.45;;;8.80;99.90;;;;;;4980476;28;20038;-64
2023/01/08 05:41:39;;;;;;;6.93;2.60;;;8.70;99.90;;;;;;4993287;28;20061;-64
2023/01/08 05:44:05;;;;;;;6.85;2.35;;;8.70;99.90;;;;;;4992735;28;20412;-64
2023/01/08 05:46:30;;;;;;;5.00;2.30;;;8.70;99.90;;;;;;4976153;28;20085;-64
2023/01/08 05:48:56;;;;;;;4.25;1.90;;;8.70;99.90;;;;;;4999488;28;20040;-64
2023/01/08 05:51:22;;;;;;;4.65;2.00;;;8.60;99.90;;;;;;4998491;28;20034;-64
2023/01/08 05:53:48;;;;;;;7.25;2.20;;;8.60;99.90;;;;;;5012222;28;20046;-64
2023/01/08 05:56:13;;;;;;;4.53;1.83;;;8.60;99.90;;;;;;4995837;28;20122;-64
2023/01/08 05:58:39;;;;;;;5.88;2.38;;;8.60;99.90;;;;;;4998038;28;20023;-64
2023/01/08 06:01:10;;;;;;;8.18;2.08;;;8.60;99.90;;;;;;4992156;28;20484;-64
2023/01/08 06:03:37;;;;;;;6.43;2.50;;;8.60;99.90;;;;;;4992415;28;20038;-64
2023/01/08 06:06:04;;;;;;;6.38;2.10;;;8.60;99.90;;;;;;4994229;28;20057;-64
2023/01/08 06:08:30;;;;;;;4.63;1.73;;;8.60;99.90;;;;;;4996101;28;20041;-64
2023/01/08 06:11:01;;;;;;;7.75;2.25;;;8.50;99.90;;;;;;4991729;28;20049;-64
2023/01/08 06:13:27;;;;;;;6.85;2.05;;;8.50;99.90;;;;;;4992324;28;20034;-64
2023/01/08 06:15:53;;;;;;;3.80;2.17;;;8.50;99.90;;;;;;5006529;28;20033;-64
2023/01/08 06:18:18;;;;;;;7.38;1.85;;;8.50;99.90;;;;;;5007175;28;20068;-64
2023/01/08 06:20:44;;;;;;;6.03;2.20;;;8.50;99.90;;;;;;4985055;28;20489;-64
2023/01/08 06:23:10;;;;;;;7.53;2.03;;;8.50;99.90;;;;;;5001948;28;20049;-64
2023/01/08 06:25:36;;;;;;;7.60;2.45;;;8.50;99.90;;;;;;4991848;28;20080;-64
2023/01/08 06:28:02;;;;;;;7.72;2.20;;;8.50;99.90;;;;;;4992222;28;20461;-64
2023/01/08 06:30:28;;;;;;;7.20;1.98;;;8.50;99.90;;;;;;4997842;28;20489;-64
2023/01/08 06:32:55;;;;;;;7.60;1.90;;;8.50;99.90;;;;;;4999483;28;20049;-64
2023/01/08 06:35:21;;;;;;;8.02;1.90;;;8.50;99.90;;;;;;4998049;28;20042;-64
2023/01/08 06:37:47;;;;;;;5.30;1.88;;;8.50;99.90;;;;;;4995841;28;20039;-64
2023/01/08 06:40:12;;;;;;;3.70;1.70;;;8.50;99.90;;;;;;4988565;28;20137;-64
2023/01/08 06:42:38;;;;;;;8.35;1.83;;;8.50;99.90;;;;;;4994776;28;20489;-64
2023/01/08 06:45:05;;;;;;;4.32;1.50;;;8.50;99.90;;;;;;5000330;28;20042;-64
2023/01/08 06:47:31;;;;;;;8.43;2.30;;;8.50;99.90;;;;;;5008561;28;20073;-64
2023/01/08 06:49:58;;;;;;;4.85;2.03;;;8.50;99.90;;;;;;4991483;28;20035;-64
2023/01/08 06:52:24;;;;;;;6.50;2.17;;;8.60;99.90;;;;;;4989072;28;20035;-65
2023/01/08 06:54:49;;;;;;;5.60;1.90;;;8.60;99.90;;;;;;4996214;28;20052;-65
2023/01/08 06:57:15;;;;;;;4.63;2.13;;;8.60;99.90;;;;;;4991677;28;20504;-65
2023/01/08 06:59:40;;;;;;;6.13;2.20;;;8.50;99.90;;;;;;4991874;28;20049;-65
2023/01/08 07:02:12;;;;;;;6.32;2.22;;;8.50;99.90;;;;;;4995694;28;20046;-65
2023/01/08 07:04:38;;;;;;;8.63;2.40;;;8.50;99.90;;;;;;4991062;28;20026;-65
2023/01/08 07:07:04;;;;;;;5.55;2.20;;;8.50;99.90;;;;;;4973794;28;20089;-65
2023/01/08 07:09:29;;;;;;;3.55;1.90;;;8.60;99.90;;;;;;4988521;28;20370;-66
2023/01/08 07:11:55;;;;;;;5.85;2.20;;;8.50;99.90;;;;;;4982042;28;20046;-65
2023/01/08 07:14:20;;;;;;;7.75;2.40;;;8.50;99.90;;;;;;5011079;28;20052;-65
2023/01/08 07:16:46;;;;;;;6.95;2.38;;;8.50;99.90;;;;;;5013441;28;20060;-65
2023/01/08 07:19:12;;;;;;;5.68;2.35;;;8.50;99.90;;;;;;4990783;28;20045;-65
2023/01/08 07:21:38;;;;;;;10.50;2.10;;;8.50;99.90;;;;;;5011557;28;20038;-65
2023/01/08 07:24:04;;;;;;;7.28;2.50;;;8.50;99.90;;;;;;4989880;28;20046;-65
2023/01/08 07:26:29;;;;;;;9.88;2.60;;;8.40;99.90;;;;;;5003663;28;20049;-65
2023/01/08 07:28:55;;;;;;;4.45;2.22;;;8.40;99.90;;;;;;5006054;28;20034;-65
2023/01/08 07:31:20;;;;;;;5.00;2.22;;;8.40;99.90;;;;;;5007354;28;20064;-65
2023/01/08 07:33:46;;;;;;;6.40;2.35;;;8.30;99.90;;;;;;5012145;28;20719;-65
2023/01/08 07:36:12;;;;;;;6.07;2.40;;;8.30;99.90;;;;;;5005826;28;20100;-65
2023/01/08 07:38:37;;;;;;;4.45;2.00;;;8.30;99.90;;;;;;5011947;28;20130;-65
2023/01/08 07:41:03;;;;;;;5.25;2.30;;;8.20;99.90;;;;;;5012529;28;20456;-65
2023/01/08 07:43:29;;;;;;;6.63;3.13;;;8.30;99.90;;;;;;5004034;28;20120;-64
2023/01/08 07:45:54;;;;;;;9.43;2.28;;;8.20;99.90;;;;;;5011722;28;20037;-64
2023/01/08 07:48:20;;;;;;;3.15;1.92;;;8.10;99.90;;;;;;5012133;28;20057;-65
2023/01/08 07:50:45;;;;;;;3.33;2.00;;;8.10;99.90;;;;;;5012752;28;20462;-66
2023/01/08 07:53:15;;;;;;;5.22;2.10;;;8.10;99.90;;;;;;5002371;28;20050;-65
2023/01/08 07:55:41;;;;;;;6.53;2.50;;;8.00;99.90;;;;;;5010077;28;20034;-65
2023/01/08 07:58:12;;;;;;;6.57;2.33;;;8.00;99.90;;;;;;5011854;28;20048;-65
2023/01/08 08:00:37;;;;;;;5.45;2.38;;;7.90;99.90;;;;;;5000614;28;20405;-64
2023/01/08 08:03:05;;;;;;;4.70;2.25;;;7.90;99.90;;;;;;5010189;28;20073;-64
2023/01/08 08:05:31;;;;;;;5.38;2.33;;;7.90;99.90;;;;;;5011648;28;20065;-65
2023/01/08 08:07:57;;;;;;;4.00;2.28;;;7.90;99.90;;;;;;5008688;28;20050;-65
2023/01/08 08:10:22;;;;;;;6.60;2.58;;;7.90;99.90;;;;;;5007680;28;20390;-65
2023/01/08 08:12:48;;;;;;;5.85;2.55;;;7.80;99.90;;;;;;5009657;28;20061;-65
2023/01/08 08:15:14;;;;;;;5.10;2.08;;;7.80;99.90;;;;;;4984031;28;20448;-64
2023/01/08 08:17:44;;;;;;;6.85;2.60;;;7.80;99.90;;;;;;4998662;28;20069;-64
2023/01/08 08:20:10;;;;;;;4.80;2.08;;;7.80;99.90;;;;;;5004925;28;20038;-64
2023/01/08 08:22:35;;;;;;;6.70;2.40;;;7.70;99.90;;;;;;5007729;28;20045;-64
2023/01/08 08:25:01;;;;;;;4.28;2.20;;;7.70;99.90;;;;;;5004367;28;20046;-65
2023/01/08 08:27:26;;;;;;;6.22;2.42;;;7.70;99.90;;;;;;5005308;28;20044;-65
2023/01/08 08:29:52;;;;;;;8.10;2.60;;;7.70;99.90;;;;;;5008518;28;20034;-64
2023/01/08 08:32:17;;;;;;;6.28;2.20;;;7.70;99.90;;;;;;5007820;28;20041;-64
2023/01/08 08:34:43;;;;;;;4.40;2.17;;;7.70;99.90;;;;;;5000965;28;20119;-64
2023/01/08 08:37:09;;;;;;;6.68;2.22;;;7.70;99.90;;;;;;5007542;28;20124;-64
2023/01/08 08:39:35;;;;;;;6.88;2.42;;;7.70;99.90;;;;;;5009573;28;20052;-64
2023/01/08 08:42:01;;;;;;;5.70;2.22;;;7.70;99.90;;;;;;4991398;28;20038;-64
2023/01/08 08:44:26;;;;;;;6.82;2.30;;;7.70;99.90;;;;;;4993370;28;20038;-65
2023/01/08 08:46:52;;;;;;;4.97;2.20;;;7.70;99.90;;;;;;5010629;28;20030;-65
2023/01/08 08:49:18;;;;;;;3.72;2.00;;;7.70;99.90;;;;;;5006717;28;20048;-64
2023/01/08 08:51:43;;;;;;;7.18;2.10;;;7.60;99.90;;;;;;5008120;28;20030;-64
2023/01/08 08:54:10;;;;;;;4.35;2.20;;;7.60;99.90;;;;;;5010435;28;20042;-64
2023/01/08 08:56:36;;;;;;;4.25;2.20;;;7.60;99.90;;;;;;5010817;28;20045;-65
2023/01/08 08:59:01;;;;;;;4.93;2.33;;;7.60;99.90;;;;;;5006129;28;20498;-64
2023/01/08 09:01:28;;;;;;;6.47;1.95;;;7.70;99.90;;;;;;5004265;28;20031;-64
2023/01/08 09:03:53;;;;;;;7.55;2.28;;;7.60;99.90;;;;;;5008500;28;20449;-64
2023/01/08 09:06:19;;;;;;;8.63;2.33;;;7.60;99.90;;;;;;5007028;28;20077;-64
2023/01/08 09:08:44;;;;;;;5.25;2.28;;;7.70;99.90;;;;;;5004992;28;20033;-65
2023/01/08 09:11:10;;;;;;;4.13;2.15;;;7.70;99.90;;;;;;5007808;28;20428;-64
2023/01/08 09:13:37;;;;;;;5.65;2.47;;;7.80;99.90;;;;;;5012774;28;20120;-64
2023/01/08 09:16:03;;;;;;;5.43;2.40;;;7.80;99.90;;;;;;5008597;28;20045;-64
2023/01/08 09:18:28;;;;;;;8.65;2.47;;;7.90;99.90;;;;;;5005027;28;20026;-64
2023/01/08 09:20:54;;;;;;;5.03;2.03;;;7.90;99.90;;;;;;5009125;28;20069;-64
2023/01/08 09:23:20;;;;;;;7.00;2.00;;;7.90;99.90;;;;;;5004807;28;20396;-64
2023/01/08 09:25:45;;;;;;;6.22;2.08;;;8.00;99.90;;;;;;5007644;28;20052;-64
2023/01/08 09:28:12;;;;;;;10.30;2.85;;;8.10;99.90;;;;;;5010602;28;20041;-64
2023/01/08 09:30:38;;;;;;;7.55;2.20;;;8.10;99.90;;;;;;5011975;28;20550;-64
2023/01/08 09:33:05;;;;;;;6.75;2.25;;;8.10;99.90;;;;;;5006818;28;20413;-65
2023/01/08 09:35:32;;;;;;;8.70;2.65;;;8.20;99.90;;;;;;5008724;28;20037;-65
2023/01/08 09:37:58;;;;;;;8.07;2.40;;;8.20;99.90;;;;;;5008816;28;20030;-64
2023/01/08 09:40:41;;;;;;;9.73;2.33;;;8.20;99.90;;;;;;4988473;28;20034;-65
2023/01/08 09:43:13;;;;;;;6.47;2.60;;;8.30;99.90;;;;;;5006169;28;20053;-65
2023/01/08 09:45:39;;;;;;;8.88;2.33;;;8.20;99.90;;;;;;5008505;28;20052;-65
2023/01/08 09:48:12;;;;;;;10.00;2.40;;;8.30;99.90;;;;;;5006927;28;20046;-65
2023/01/08 09:50:38;;;;;;;7.90;2.30;;;8.30;99.90;;;;;;5003360;28;20041;-65
2023/01/08 09:53:03;;;;;;;6.85;2.20;;;8.40;99.90;;;;;;5005856;28;20041;-65
2023/01/08 09:55:32;;;;;;;8.68;2.40;;;8.40;99.90;;;;;;5010474;28;20048;-65
2023/01/08 09:57:59;;;;;;;6.78;2.33;;;8.50;99.90;;;;;;5001937;28;20479;-66
2023/01/08 10:00:32;;;;;;;8.25;2.70;;;8.50;99.90;;;;;;5007035;28;20093;-65
2023/01/08 10:02:58;;;;;;;9.32;2.30;;;8.50;99.90;;;;;;5007918;28;20120;-65
2023/01/08 10:05:27;;;;;;;7.13;2.00;;;8.60;99.90;;;;;;4997118;28;20128;-65
2023/01/08 10:07:52;;;;;;;8.82;2.08;;;8.60;99.90;;;;;;5005958;28;20046;-65
2023/01/08 10:10:25;;;;;;;7.63;2.20;;;8.60;99.90;;;;;;5005488;28;20050;-65
2023/01/08 10:12:52;;;;;;;7.32;1.98;;;8.70;99.90;;;;;;5005334;28;20046;-65
2023/01/08 10:15:20;;;;;;;10.05;2.15;;;8.70;99.90;;;;;;4991696;28;20134;-64
2023/01/08 10:18:02;;;;;;;4.70;1.92;;;8.80;99.90;;;;;;4992113;28;20524;-65
2023/01/08 10:20:29;;;;;;;7.85;1.90;;;8.80;99.90;;;;;;4992119;28;20074;-66
2023/01/08 10:22:55;;;;;;;8.23;1.83;;;8.80;99.90;;;;;;4995839;28;20120;-65
2023/01/08 10:25:23;;;;;;;5.85;1.73;;;8.80;99.90;;;;;;5002325;28;20041;-66
2023/01/08 10:28:02;;;;;;;9.15;1.88;;;8.80;99.90;;;;;;5011668;28;20129;-66
2023/01/08 10:30:36;;;;;;;8.43;2.08;;;8.90;99.90;;;;;;5002877;28;20046;-66
2023/01/08 10:33:04;;;;;;;7.78;2.33;;;8.90;99.90;;;;;;5006823;28;20050;-66
2023/01/08 10:35:37;;;;;;;11.63;2.13;;;8.90;99.90;;;;;;5006486;28;20022;-65
2023/01/08 10:38:03;;;;;;;9.30;2.00;;;8.90;99.90;;;;;;5005027;28;20030;-65
2023/01/08 10:40:35;;;;;;;13.73;2.38;;;8.90;99.90;;;;;;5002535;28;20118;-64
2023/01/08 10:43:08;;;;;;;7.47;1.92;;;9.00;99.90;;;;;;5008334;28;20168;-65
2023/01/08 10:45:34;;;;;;;8.88;2.08;;;9.00;99.90;;;;;;5002541;28;20378;-64
2023/01/08 10:48:04;;;;;;;7.28;1.92;;;9.10;99.90;;;;;;5002908;28;20104;-64
2023/01/08 10:50:32;;;;;;;7.28;1.95;;;9.00;99.90;;;;;;5008483;28;20069;-64
2023/01/08 10:53:19;;;;;;;10.23;1.88;;;9.10;99.90;;;;;;5015239;28;20037;-64
2023/01/08 10:55:55;;;;;;;10.65;2.15;;;9.10;99.90;;;;;;5004666;28;20554;-64
2023/01/08 10:58:21;;;;;;;9.63;2.00;;;9.10;99.90;;;;;;5003919;28;20457;-65
2023/01/08 11:00:46;;;;;;;8.18;2.40;;;9.10;99.90;;;;;;5011267;28;20107;-65
2023/01/08 11:03:28;;;;;;;8.88;2.00;;;9.10;99.90;;;;;;5009910;28;20396;-64
2023/01/08 11:05:53;;;;;;;14.02;2.47;;;9.20;99.90;;;;;;5005649;28;20050;-64
2023/01/08 11:08:21;;;;;;;7.70;1.83;;;9.20;99.90;;;;;;5010885;28;20048;-65
2023/01/08 11:10:58;;;;;;;7.10;1.83;;;9.20;99.90;;;;;;5013920;28;20413;-64
2023/01/08 11:13:24;;;;;;;9.90;1.95;;;9.20;99.90;;;;;;5000588;28;20057;-64
2023/01/08 11:16:09;;;;;;;7.93;1.73;;;9.20;99.90;;;;;;5001582;28;20045;-64
2023/01/08 11:18:45;;;;;;;8.40;2.00;;;9.20;99.90;;;;;;5013559;28;20030;-64
2023/01/08 11:21:20;;;;;;;10.45;2.38;;;9.30;99.90;;;;;;5002612;28;20590;-64
2023/01/08 11:23:46;;;;;;;12.25;2.45;;;9.30;99.90;;;;;;5012393;28;20077;-64
2023/01/08 11:26:17;;;;;;;6.60;1.70;;;9.40;99.90;;;;;;5014115;28;20109;-64
2023/01/08 11:29:04;;;;;;;9.70;1.75;;;9.40;99.90;;;;;;5005442;28;20097;-64
2023/01/08 11:31:45;;;;;;;10.52;2.40;;;9.40;99.90;;;;;;4994943;28;20049;-64
2023/01/08 11:34:33;;;;;;;10.93;2.47;;;9.40;99.90;;;;;;4995460;28;20038;-65
2023/01/08 11:37:09;;;;;;;8.57;2.00;;;9.50;99.90;;;;;;4993757;28;20042;-64
2023/01/08 11:39:37;;;;;;;12.57;2.67;;;9.50;99.90;;;;;;5001707;28;20057;-65
2023/01/08 11:42:14;;;;;;;9.90;2.40;;;9.50;99.90;;;;;;4994816;28;20081;-65
2023/01/08 11:44:59;;;;;;;7.88;2.65;;;9.50;99.90;;;;;;4995238;28;20035;-64
2023/01/08 11:47:43;;;;;;;6.85;2.33;;;9.60;99.90;;;;;;4998447;28;20081;-64
2023/01/08 11:50:26;;;;;;;8.00;2.22;;;9.60;99.90;;;;;;4994569;28;20419;-64
2023/01/08 11:53:13;;;;;;;10.05;2.40;;;9.50;99.90;;;;;;4996830;28;20117;-65
2023/01/08 11:55:49;;;;;;;10.00;2.53;;;9.40;99.90;;;;;;4999353;28;20048;-65
2023/01/08 11:58:30;;;;;;;9.57;2.40;;;9.40;99.90;;;;;;5009638;28;20103;-65
2023/01/08 12:01:27;;;;;;;7.63;2.40;;;9.40;99.90;;;;;;5007403;28;20038;-65
2023/01/08 12:04:34;;;;;;;8.13;2.33;;;9.50;99.90;;;;;;4998611;28;20077;-65
2023/01/08 12:07:11;;;;;;;8.10;2.30;;;9.40;99.90;;;;;;4980364;28;20073;-64
2023/01/08 12:09:51;;;;;;;9.70;2.75;;;9.40;99.90;;;;;;5008176;28;20034;-64
2023/01/08 12:12:53;;;;;;;8.40;2.60;;;9.40;99.90;;;;;;4999999;28;20037;-65
2023/01/08 12:15:38;;;;;;;8.98;2.30;;;9.60;99.90;;;;;;4999789;28;20485;-62
2023/01/08 12:18:26;;;;;;;10.38;2.63;;;9.60;99.90;;;;;;5008698;28;20500;-62
2023/01/08 12:21:32;;;;;;;12.02;2.72;;;9.60;99.90;;;;;;4998006;28;20034;-62
2023/01/08 12:23:58;;;;;;;12.75;3.00;;;9.50;99.90;;;;;;4993761;28;20513;-62
2023/01/08 12:26:33;;;;;;;7.30;2.78;;;9.40;99.90;;;;;;4989190;28;20038;-62
2023/01/08 12:29:56;;;;;;;9.05;2.53;;;9.50;99.90;;;;;;4993518;28;20077;-62
2023/01/08 12:32:43;;;;;;;5.43;2.30;;;9.60;99.90;;;;;;4912889;29;20173;-62
2023/01/08 12:35:20;;;;;;;9.75;2.60;;;9.70;99.90;;;;;;4993231;28;20050;-62
2023/01/08 12:38:02;;;;;;;5.45;2.13;;;9.80;99.90;;;;;;4993680;28;20489;-62
2023/01/08 12:40:38;;;;;;;8.50;3.00;;;9.80;99.90;;;;;;4993619;28;20080;-62
2023/01/08 12:43:10;;;;;;;7.38;2.55;;;9.80;99.90;;;;;;4988988;28;20130;-65
2023/01/08 12:45:43;;;;;;;9.88;2.25;;;9.80;99.90;;;;;;4997089;28;20084;-65
2023/01/08 12:48:31;;;;;;;6.85;2.28;;;9.90;99.90;;;;;;4993365;28;20050;-65
2023/01/08 12:51:39;;;;;;;6.50;2.38;;;9.90;99.90;;;;;;4993505;28;20511;-65
2023/01/08 12:54:14;;;;;;;7.10;2.28;;;9.90;99.90;;;;;;4990033;28;20544;-65
2023/01/08 12:56:47;;;;;;;12.98;2.00;;;9.90;99.90;;;;;;4975867;28;20074;-65
2023/01/08 12:59:15;;;;;;;6.13;1.88;;;10.00;99.90;;;;;;4993327;28;20041;-65
2023/01/08 13:01:48;;;;;;;6.95;1.92;;;10.00;99.90;;;;;;4992129;28;20428;-65
2023/01/08 13:04:14;;;;;;;7.47;2.15;;;10.00;99.90;;;;;;5001495;28;20045;-65
2023/01/08 13:07:02;;;;;;;9.40;2.22;;;10.00;99.90;;;;;;4993110;28;20034;-65
2023/01/08 13:09:28;;;;;;;4.68;1.52;;;9.90;99.90;;;;;;4992976;28;20524;-65
2023/01/08 13:11:56;;;;;;;5.65;2.00;;;10.00;99.90;;;;;;4990907;28;20034;-65
2023/01/08 13:14:22;;;;;;;6.40;1.92;;;9.90;99.90;;;;;;4992978;28;20108;-66
2023/01/08 13:17:02;;;;;;;6.18;1.90;;;9.90;99.90;;;;;;4994808;28;20033;-65
2023/01/08 13:19:40;;;;;;;6.78;1.80;;;10.00;99.90;;;;;;4998305;28;20038;-64